Meteorological Aerodrome Report (METAR)

METAR

Data at: 0730 UTC 29 Nov 2022

METAR for:NVSC (Sola/Vanua Lava Arpt, TO, VU)
Text:No data found

METAR

Data at: 0730 UTC 29 Nov 2022

METAR for:NVSG (Longana Arpt, PA, VU)
Text:No data found

METAR

Data at: 0730 UTC 29 Nov 2022

METAR for:NVSS (Santo/Pekoa Intl, SA, VU)
Text:NVSS 290700Z 02004KT 9999 SCT020 BKN290 27/23 Q1008
Temperature: 27.0°C ( 81°F)
Dewpoint: 23.0°C ( 73°F) [RH = 79%]
Pressure (altimeter):29.76 inches Hg (1008.0 mb)
Winds:from the NNE (20 degrees) at 5 MPH (4 knots; 2.1 m/s)
Visibility:6 or more sm (10+ km)
Ceiling:29000 feet AGL
Clouds: scattered clouds at 2000 feet AGL, broken clouds at 29000 feet AGL

METAR

Data at: 0730 UTC 29 Nov 2022

METAR for:NVSL (Malekula Isl/Lamap, MA, VU)
Text:No data found

METAR

Data at: 0730 UTC 29 Nov 2022

METAR for:NVSP (Norsup Arpt, MA, VU)
Text:No data found

METAR

Data at: 0730 UTC 29 Nov 2022

METAR for:NVVV (Efate/Bauerfield Int, SE, VU)
Text:NVVV 290700Z 04003KT 9999 FEW020 SCT290 28/23 Q1009
Temperature: 28.0°C ( 82°F)
Dewpoint: 23.0°C ( 73°F) [RH = 74%]
Pressure (altimeter):29.79 inches Hg (1009.0 mb)
Winds:from the NE (40 degrees) at 3 MPH (3 knots; 1.5 m/s)
Visibility:6 or more sm (10+ km)
Ceiling:at least 12,000 feet AGL
Clouds: few clouds at 2000 feet AGL, scattered clouds at 29000 feet AGL

METAR

Data at: 0730 UTC 29 Nov 2022

METAR for:NVVW (Tanna Arpt, TA, VU)
Text:No data found

METAR

Data at: 0730 UTC 29 Nov 2022

METAR for:NVVA (Aneityum/Mystery Isl, TA, VU)
Text:No data found

METAR

Data at: 0730 UTC 29 Nov 2022

NVVV 290700Z 04003KT 9999 FEW020 SCT290 28/23 Q1009
No Data available for NVSC
No Data available for NVSG
NVSS 290700Z 02004KT 9999 SCT020 BKN290 27/23 Q1008
No Data available for NVSL
No Data available for NVSP
No Data available for NVVW
No Data available for NVVA